MDT,Max TemperatureF,Mean TemperatureF,Min TemperatureF,Max Dew PointF,MeanDew PointF,Min DewpointF,Max Humidity, Mean Humidity, Min Humidity, Max Sea Level PressureIn, Mean Sea Level PressureIn, Min Sea Level PressureIn, Max VisibilityMiles, Mean VisibilityMiles, Min VisibilityMiles, Max Wind SpeedMPH, Mean Wind SpeedMPH, Max Gust SpeedMPH,PrecipitationIn, CloudCover, Events, WindDirDegrees
2014-4-1,44,31,17,26,20,15,96,66,36,29.87,29.78,29.71,10,10,10,16,6,22,0.00,3,,131
2014-4-2,43,35,26,27,24,21,85,66,46,29.99,29.81,29.69,10,9,1,25,5,31,T,6,Snow,333
2014-4-3,47,34,20,25,18,11,92,58,23,30.11,30.03,29.98,10,10,10,14,4,18,0.00,1,,163
2014-4-4,47,38,28,31,22,16,92,62,31,29.98,29.86,29.77,10,10,3,24,7,30,T,4,Rain-Snow,249
2014-4-5,45,37,29,29,22,15,92,62,31,29.99,29.92,29.87,10,10,10,21,8,26,T,6,,310
2014-4-6,47,41,34,26,22,16,69,49,28,30.18,30.00,29.92,10,10,9,36,13,44,T,6,Snow,290
2014-4-7,56,43,30,28,26,22,78,55,32,30.27,30.23,30.18,10,10,10,25,9,33,0.00,3,,306
2014-4-8,64,46,27,30,26,24,92,57,22,30.25,30.11,29.94,10,10,10,17,6,27,0.00,0,,208
2014-4-9,56,43,30,32,24,16,54,40,26,29.99,29.90,29.83,10,10,10,26,13,38,T,2,,286
2014-4-10,55,41,26,24,17,11,81,50,19,30.11,30.05,30.00,10,10,10,18,5,23,0.00,0,,296
2014-4-11,59,43,26,24,21,17,81,51,21,30.02,29.88,29.78,10,10,10,22,7,31,0.00,0,,275
2014-4-12,49,36,22,26,20,13,85,56,26,30.08,29.92,29.79,10,8,2,24,10,31,T,5,Snow,25
2014-4-13,38,29,19,15,7,-6,73,45,16,30.44,30.28,30.04,10,10,5,20,9,25,T,4,Snow,351
2014-4-14,56,35,13,18,7,-1,80,45,10,30.43,30.21,29.99,10,10,10,18,5,23,0.00,0,,218
2014-4-15,46,39,31,30,19,11,70,48,25,29.94,29.82,29.74,10,10,10,31,12,40,0.00,4,,298
2014-4-16,45,36,27,22,18,14,69,51,33,30.05,30.00,29.95,10,9,1,17,6,22,0.00,6,,296
2014-4-17,57,43,28,30,25,20,78,54,30,30.01,29.86,29.67,10,10,10,17,5,23,T,7,,202
2014-4-18,51,39,26,37,26,7,92,58,24,30.04,29.81,29.63,10,10,4,28,10,39,0.21,5,Rain,273
2014-4-19,61,41,20,26,15,5,81,47,13,30.07,29.96,29.86,10,10,10,17,5,36,0.00,0,,203
2014-4-20,55,45,34,27,18,8,64,40,15,30.25,30.11,29.88,10,10,10,21,10,28,0.00,2,,311
2014-4-21,65,45,24,22,18,14,81,47,13,30.29,30.10,29.83,10,10,10,22,7,28,0.00,1,,141
2014-4-22,63,48,32,41,32,24,85,61,36,29.83,29.63,29.44,10,7,1,32,9,41,0.51,7,Rain-Snow-Thunderstorm,300
2014-4-23,41,35,29,31,24,20,85,65,45,29.91,29.79,29.62,10,8,1,25,11,35,T,7,Snow,279
2014-4-24,48,40,31,34,29,21,92,69,46,29.89,29.85,29.78,10,10,4,21,6,28,0.08,7,Rain,253
2014-4-25,53,43,33,39,35,30,100,72,44,29.86,29.68,29.56,10,8,2,25,6,30,0.48,7,Rain-Thunderstorm,303
2014-4-26,44,38,32,34,31,24,96,77,57,29.68,29.57,29.51,10,7,2,22,9,28,0.07,8,Rain-Snow,332
2014-4-27,45,36,27,25,21,16,78,56,34,29.89,29.74,29.68,10,10,10,28,8,36,T,6,,309
2014-4-28,42,36,29,25,19,15,69,52,34,30.44,30.15,29.85,10,9,2,28,13,39,T,5,Snow,312
2014-4-29,51,37,23,23,19,16,75,51,26,30.63,30.57,30.47,10,10,10,17,6,24,0.00,2,,323
2014-4-30,61,42,22,25,19,9,88,51,13,30.63,30.52,30.37,10,10,10,20,6,24,0.00,0,,106